Time;durP1;ratioP1;P1;durP2;ratioP2;P2;SDS_P1;SDS_P2;PMS_P1;PMS_P2;Temp;Humidity;BMP_temperature;BMP_pressure;BME280_temperature;BME280_humidity;BME280_pressure;Samples;Min_cycle;Max_cycle;Signal;HPM_P1;HPM_P2
2022/06/05 00:01:28;;;;;;;5.30;4.05;;;;;;;;;;5013727;28;20072;-46
2022/06/05 00:03:56;;;;;;;5.63;4.32;;;;;;;;;;5014008;28;20025;-44
2022/06/05 00:06:41;;;;;;;6.50;4.53;;;;;;;;;;5013707;28;20057;-44
2022/06/05 00:09:48;;;;;;;9.05;5.65;;;;;;;;;;5013651;28;20405;-46
2022/06/05 00:12:16;;;;;;;6.72;4.97;;;;;;;;;;4933822;29;20044;-46
2022/06/05 00:14:42;;;;;;;10.35;5.88;;;;;;;;;;4998171;28;20307;-45
2022/06/05 00:17:16;;;;;;;8.93;5.63;;;;;;;;;;5013290;28;20469;-45
2022/06/05 00:19:46;;;;;;;13.63;6.30;;;;;;;;;;5013691;28;20026;-45
2022/06/05 00:22:12;;;;;;;10.27;5.80;;;;;;;;;;5013641;28;20018;-45
2022/06/05 00:24:38;;;;;;;7.22;5.88;;;;;;;;;;5013308;28;20030;-44
2022/06/05 00:27:13;;;;;;;8.27;5.82;;;;;;;;;;5013262;28;20029;-46
2022/06/05 00:29:49;;;;;;;7.07;6.05;;;;;;;;;;5013618;28;20045;-45
2022/06/05 00:32:24;;;;;;;8.85;4.38;;;;;;;;;;5013073;28;20116;-45
2022/06/05 00:34:50;;;;;;;11.18;5.78;;;;;;;;;;5013318;28;20029;-46
2022/06/05 00:37:21;;;;;;;11.82;6.70;;;;;;;;;;5013232;28;20406;-44
2022/06/05 00:40:24;;;;;;;8.55;5.07;;;;;;;;;;5013358;28;20034;-44
2022/06/05 00:42:49;;;;;;;7.70;5.75;;;;;;;;;;5013321;28;20034;-44
2022/06/05 00:45:16;;;;;;;12.20;6.68;;;;;;;;;;5013021;28;20125;-43
2022/06/05 00:47:43;;;;;;;10.20;7.15;;;;;;;;;;5013009;28;20037;-45
2022/06/05 00:50:15;;;;;;;9.02;6.75;;;;;;;;;;5013000;28;20037;-46
2022/06/05 00:52:43;;;;;;;11.55;6.97;;;;;;;;;;5013209;28;20029;-45
2022/06/05 00:55:11;;;;;;;7.97;6.38;;;;;;;;;;5013034;28;20040;-45
2022/06/05 00:57:38;;;;;;;7.47;6.32;;;;;;;;;;5013155;28;20092;-45
2022/06/05 01:00:23;;;;;;;10.45;7.38;;;;;;;;;;5012757;28;20413;-45
2022/06/05 01:02:52;;;;;;;8.45;6.78;;;;;;;;;;5013084;28;20033;-45
2022/06/05 01:05:19;;;;;;;9.67;6.83;;;;;;;;;;5012944;28;20018;-45
2022/06/05 01:07:46;;;;;;;9.60;6.40;;;;;;;;;;5012713;28;20022;-46
2022/06/05 01:10:13;;;;;;;10.15;6.75;;;;;;;;;;5012753;28;20026;-45
2022/06/05 01:12:44;;;;;;;8.40;6.18;;;;;;;;;;5012663;28;20029;-46
2022/06/05 01:15:38;;;;;;;12.25;7.25;;;;;;;;;;5012534;28;20496;-48
2022/06/05 01:18:21;;;;;;;11.00;6.22;;;;;;;;;;5012696;28;20045;-44
2022/06/05 01:21:08;;;;;;;8.38;6.50;;;;;;;;;;5016673;28;20062;-46
2022/06/05 01:23:48;;;;;;;7.93;5.35;;;;;;;;;;5019388;28;20056;-44
2022/06/05 01:27:01;;;;;;;8.80;6.88;;;;;;;;;;5019144;28;20041;-45
2022/06/05 01:29:48;;;;;;;8.98;6.68;;;;;;;;;;5018978;28;20053;-45
2022/06/05 01:32:38;;;;;;;17.55;7.05;;;;;;;;;;5019086;28;20050;-45
2022/06/05 01:35:20;;;;;;;8.90;6.78;;;;;;;;;;5018886;28;20125;-44
2022/06/05 01:37:53;;;;;;;10.35;7.32;;;;;;;;;;5019047;28;20032;-44
2022/06/05 01:40:24;;;;;;;10.27;7.25;;;;;;;;;;5019270;28;20021;-44
2022/06/05 01:42:57;;;;;;;8.98;6.78;;;;;;;;;;5018979;28;20429;-44
2022/06/05 01:45:29;;;;;;;8.88;7.22;;;;;;;;;;5019192;28;20026;-44
2022/06/05 01:47:56;;;;;;;9.02;6.93;;;;;;;;;;5019024;28;20481;-45
2022/06/05 01:50:30;;;;;;;8.68;6.85;;;;;;;;;;5018788;28;20029;-46
2022/06/05 01:53:01;;;;;;;8.57;6.93;;;;;;;;;;5019137;28;20032;-45
2022/06/05 01:55:45;;;;;;;8.90;6.85;;;;;;;;;;5019068;28;20378;-44
2022/06/05 01:58:13;;;;;;;10.65;6.63;;;;;;;;;;5019165;28;20439;-44
2022/06/05 02:00:39;;;;;;;8.93;6.93;;;;;;;;;;5001515;28;20072;-45
2022/06/05 02:03:40;;;;;;;13.27;6.47;;;;;;;;;;5001602;28;20476;-45
2022/06/05 02:06:23;;;;;;;7.40;6.53;;;;;;;;;;5005059;28;20045;-44
2022/06/05 02:08:54;;;;;;;10.10;6.30;;;;;;;;;;5019091;28;20076;-44
2022/06/05 02:11:28;;;;;;;9.80;6.80;;;;;;;;;;5019073;28;20040;-45
2022/06/05 02:14:03;;;;;;;8.20;6.57;;;;;;;;;;5018656;28;20540;-45
2022/06/05 02:16:31;;;;;;;8.15;7.22;;;;;;;;;;5018735;28;20034;-44
2022/06/05 02:19:01;;;;;;;7.68;6.88;;;;;;;;;;5018727;28;20030;-44
2022/06/05 02:21:27;;;;;;;12.48;6.30;;;;;;;;;;5018972;28;20026;-44
2022/06/05 02:23:53;;;;;;;7.85;6.32;;;;;;;;;;5018581;28;20393;-44
2022/06/05 02:26:18;;;;;;;11.30;6.60;;;;;;;;;;5018922;28;20022;-44
2022/06/05 02:28:44;;;;;;;10.07;6.13;;;;;;;;;;5018857;28;20474;-44
2022/06/05 02:31:41;;;;;;;8.13;6.75;;;;;;;;;;5017577;28;20140;-46
2022/06/05 02:34:16;;;;;;;7.45;6.50;;;;;;;;;;5015648;28;20033;-45
2022/06/05 02:36:53;;;;;;;9.30;6.82;;;;;;;;;;5015344;28;20029;-45
2022/06/05 02:39:37;;;;;;;8.70;6.82;;;;;;;;;;5015448;28;20022;-46
2022/06/05 02:42:36;;;;;;;9.68;6.90;;;;;;;;;;5015322;28;20400;-47
2022/06/05 02:45:19;;;;;;;9.65;6.72;;;;;;;;;;5015535;28;20026;-46
2022/06/05 02:47:51;;;;;;;10.20;6.72;;;;;;;;;;5015214;28;20080;-45
2022/06/05 02:50:22;;;;;;;8.15;6.80;;;;;;;;;;5015232;28;20029;-45
2022/06/05 02:52:50;;;;;;;8.95;6.05;;;;;;;;;;5015048;28;20469;-44
2022/06/05 02:55:19;;;;;;;8.88;6.45;;;;;;;;;;5015274;28;20026;-44
2022/06/05 02:57:44;;;;;;;9.07;5.88;;;;;;;;;;5015017;28;20029;-44
2022/06/05 03:00:15;;;;;;;6.38;5.38;;;;;;;;;;5015232;28;20109;-45
2022/06/05 03:05:25;;;;;;;8.23;5.90;;;;;;;;;;5014957;28;20072;-44
2022/06/05 03:07:50;;;;;;;6.80;5.90;;;;;;;;;;5015137;28;20429;-44
2022/06/05 03:10:16;;;;;;;9.82;5.95;;;;;;;;;;5015041;28;20084;-44
2022/06/05 03:12:42;;;;;;;6.80;5.50;;;;;;;;;;5015013;28;20029;-46
2022/06/05 03:15:08;;;;;;;7.35;6.65;;;;;;;;;;5014653;28;20080;-44
2022/06/05 03:17:34;;;;;;;8.60;6.90;;;;;;;;;;5014664;28;20026;-44
2022/06/05 03:20:00;;;;;;;8.00;7.00;;;;;;;;;;5014567;28;20520;-45
2022/06/05 03:22:27;;;;;;;11.52;7.90;;;;;;;;;;5014886;28;20037;-45
2022/06/05 03:24:52;;;;;;;7.63;6.72;;;;;;;;;;5014725;28;20030;-45
2022/06/05 03:27:19;;;;;;;11.82;7.53;;;;;;;;;;5014918;28;20095;-45
2022/06/05 03:29:45;;;;;;;8.18;6.50;;;;;;;;;;5014549;28;20087;-46
2022/06/05 03:32:11;;;;;;;8.43;6.30;;;;;;;;;;5014593;28;20045;-45
2022/06/05 03:34:36;;;;;;;6.72;6.03;;;;;;;;;;5014395;28;20112;-45
2022/06/05 03:37:04;;;;;;;7.30;6.40;;;;;;;;;;4996927;28;20034;-45
2022/06/05 03:39:31;;;;;;;7.35;5.63;;;;;;;;;;5014783;28;20488;-45
2022/06/05 03:41:56;;;;;;;7.13;5.82;;;;;;;;;;5014412;28;20394;-44
2022/06/05 03:44:22;;;;;;;7.95;6.00;;;;;;;;;;5013700;28;20042;-44
2022/06/05 03:46:47;;;;;;;9.88;5.80;;;;;;;;;;5014086;28;20032;-44
2022/06/05 03:49:13;;;;;;;6.72;5.65;;;;;;;;;;5014035;28;20026;-48
2022/06/05 03:51:39;;;;;;;6.15;5.38;;;;;;;;;;5014247;28;20107;-45
2022/06/05 03:54:04;;;;;;;7.63;5.38;;;;;;;;;;5013913;28;20032;-44
2022/06/05 03:56:30;;;;;;;5.47;4.80;;;;;;;;;;5013914;28;20026;-45
2022/06/05 03:58:56;;;;;;;6.63;4.82;;;;;;;;;;5014119;28;20029;-45
2022/06/05 04:01:25;;;;;;;6.03;4.60;;;;;;;;;;5014072;28;20054;-44
2022/06/05 04:03:51;;;;;;;4.85;4.13;;;;;;;;;;5013981;28;20036;-45
2022/06/05 04:06:20;;;;;;;5.75;4.72;;;;;;;;;;5014035;28;20042;-46
2022/06/05 04:08:45;;;;;;;4.97;4.20;;;;;;;;;;5013651;28;20080;-46
2022/06/05 04:11:14;;;;;;;4.50;4.05;;;;;;;;;;5013598;28;20034;-47
2022/06/05 04:13:40;;;;;;;8.27;3.80;;;;;;;;;;5013772;28;20022;-45
2022/06/05 04:16:14;;;;;;;5.05;3.67;;;;;;;;;;5013838;28;20026;-45
2022/06/05 04:18:39;;;;;;;5.22;3.83;;;;;;;;;;5013777;28;20022;-45
2022/06/05 04:21:10;;;;;;;6.78;4.38;;;;;;;;;;5013473;28;20045;-46
2022/06/05 04:23:36;;;;;;;6.32;3.70;;;;;;;;;;5013319;28;20042;-45
2022/06/05 04:26:05;;;;;;;8.05;4.13;;;;;;;;;;5013662;28;20029;-44
2022/06/05 04:28:30;;;;;;;4.10;3.65;;;;;;;;;;5013562;28;20022;-45
2022/06/05 04:30:56;;;;;;;8.00;4.20;;;;;;;;;;5013621;28;20025;-45
2022/06/05 04:33:21;;;;;;;7.68;4.60;;;;;;;;;;5013152;28;20046;-46
2022/06/05 04:35:47;;;;;;;7.32;4.03;;;;;;;;;;5013092;28;20385;-46
2022/06/05 04:38:12;;;;;;;5.88;4.55;;;;;;;;;;5013157;28;20026;-45
2022/06/05 04:40:38;;;;;;;7.18;4.40;;;;;;;;;;5013390;28;20033;-46
2022/06/05 04:43:03;;;;;;;8.48;4.20;;;;;;;;;;5013343;28;20080;-45
2022/06/05 04:45:29;;;;;;;5.38;4.30;;;;;;;;;;5013101;28;20454;-47
2022/06/05 04:47:54;;;;;;;5.95;4.13;;;;;;;;;;4995752;28;20034;-45
2022/06/05 04:50:19;;;;;;;7.28;4.15;;;;;;;;;;5012952;28;20033;-47
2022/06/05 04:52:45;;;;;;;4.47;4.07;;;;;;;;;;5013234;28;20065;-44
2022/06/05 04:55:11;;;;;;;8.48;4.38;;;;;;;;;;4994715;28;20032;-47
2022/06/05 04:57:36;;;;;;;4.97;4.07;;;;;;;;;;5013162;28;20026;-46
2022/06/05 05:00:05;;;;;;;5.22;4.10;;;;;;;;;;5012894;28;20478;-46
2022/06/05 05:02:30;;;;;;;5.75;4.13;;;;;;;;;;5012748;28;20076;-45
2022/06/05 05:04:57;;;;;;;6.68;4.70;;;;;;;;;;5012829;28;20026;-45
2022/06/05 05:07:22;;;;;;;7.13;4.65;;;;;;;;;;5012992;28;20394;-45
2022/06/05 05:09:48;;;;;;;5.22;4.25;;;;;;;;;;5012951;28;20030;-45
2022/06/05 05:12:15;;;;;;;4.90;4.40;;;;;;;;;;5012927;28;20041;-45
2022/06/05 05:14:41;;;;;;;6.55;4.50;;;;;;;;;;5012813;28;20022;-45
2022/06/05 05:17:07;;;;;;;8.93;4.95;;;;;;;;;;5012701;28;20377;-47
2022/06/05 05:19:33;;;;;;;6.95;4.63;;;;;;;;;;5012909;28;20037;-46
2022/06/05 05:21:59;;;;;;;7.10;4.70;;;;;;;;;;5012839;28;20044;-45
2022/06/05 05:24:25;;;;;;;6.03;4.10;;;;;;;;;;5012560;28;20543;-46
2022/06/05 05:26:50;;;;;;;8.30;4.80;;;;;;;;;;5012831;28;20022;-45
2022/06/05 05:29:16;;;;;;;7.68;4.50;;;;;;;;;;5012751;28;20111;-45
2022/06/05 05:31:44;;;;;;;7.00;4.65;;;;;;;;;;5012579;28;20122;-46
2022/06/05 05:34:10;;;;;;;4.50;4.00;;;;;;;;;;5012322;28;20088;-46
2022/06/05 05:36:36;;;;;;;5.75;3.95;;;;;;;;;;5012341;28;20112;-47
2022/06/05 05:42:05;;;;;;;5.47;3.80;;;;;;;;;;4997960;28;20508;-46
2022/06/05 05:44:38;;;;;;;6.70;4.18;;;;;;;;;;5012585;28;20028;-46
2022/06/05 05:47:06;;;;;;;4.75;3.80;;;;;;;;;;5012640;28;20022;-47
2022/06/05 05:49:32;;;;;;;4.40;3.38;;;;;;;;;;5012555;28;20068;-47
2022/06/05 05:51:57;;;;;;;4.05;3.65;;;;;;;;;;5012186;28;20022;-48
2022/06/05 05:54:23;;;;;;;4.07;3.67;;;;;;;;;;5012513;28;20113;-47
2022/06/05 05:56:48;;;;;;;5.15;3.47;;;;;;;;;;5012274;28;20100;-46
2022/06/05 05:59:14;;;;;;;6.07;3.60;;;;;;;;;;4994601;28;20088;-48
2022/06/05 06:01:39;;;;;;;4.28;3.00;;;;;;;;;;5012523;28;20145;-47
2022/06/05 06:04:05;;;;;;;4.55;3.35;;;;;;;;;;5012197;28;20045;-48
2022/06/05 06:06:33;;;;;;;6.68;3.63;;;;;;;;;;5013507;28;20112;-48
2022/06/05 06:08:59;;;;;;;4.88;3.00;;;;;;;;;;5016237;28;20573;-48
2022/06/05 06:11:25;;;;;;;3.22;2.60;;;;;;;;;;5016178;28;20073;-45
2022/06/05 06:13:51;;;;;;;3.70;2.22;;;;;;;;;;5015738;28;20034;-47
2022/06/05 06:16:17;;;;;;;4.57;2.45;;;;;;;;;;5016060;28;20022;-46
2022/06/05 06:18:42;;;;;;;3.58;2.22;;;;;;;;;;5015998;28;20022;-48
2022/06/05 06:21:07;;;;;;;3.78;2.38;;;;;;;;;;4998221;28;20033;-46
2022/06/05 06:23:33;;;;;;;3.20;2.40;;;;;;;;;;5015575;28;20030;-47
2022/06/05 06:25:58;;;;;;;3.05;2.17;;;;;;;;;;5015931;28;20154;-46
2022/06/05 06:28:24;;;;;;;3.53;2.55;;;;;;;;;;5015569;28;20036;-45
2022/06/05 06:30:49;;;;;;;3.65;2.55;;;;;;;;;;5015876;28;20026;-46
2022/06/05 06:33:15;;;;;;;3.70;2.17;;;;;;;;;;5015329;28;20053;-46
2022/06/05 06:35:41;;;;;;;5.78;2.42;;;;;;;;;;5015320;28;20030;-46
2022/06/05 06:38:07;;;;;;;2.88;2.40;;;;;;;;;;5015311;28;20115;-46
2022/06/05 06:40:35;;;;;;;3.42;2.45;;;;;;;;;;5015447;28;20026;-47
2022/06/05 06:43:01;;;;;;;4.60;2.78;;;;;;;;;;5015555;28;20032;-46
2022/06/05 06:45:26;;;;;;;3.90;2.30;;;;;;;;;;5015285;28;20033;-46
2022/06/05 06:47:52;;;;;;;2.42;1.85;;;;;;;;;;5015498;28;20034;-45
2022/06/05 06:50:17;;;;;;;3.97;3.05;;;;;;;;;;5015346;28;20034;-46
2022/06/05 06:52:43;;;;;;;3.60;2.90;;;;;;;;;;5015105;28;20103;-50
2022/06/05 06:55:13;;;;;;;4.75;3.10;;;;;;;;;;5014975;28;20036;-47
2022/06/05 06:57:39;;;;;;;6.30;3.22;;;;;;;;;;5015030;28;20026;-47
2022/06/05 07:00:06;;;;;;;4.30;2.90;;;;;;;;;;5014948;28;20033;-47
2022/06/05 07:02:31;;;;;;;5.20;3.70;;;;;;;;;;5014901;28;20057;-46
2022/06/05 07:04:57;;;;;;;5.47;3.80;;;;;;;;;;5014854;28;20053;-48
2022/06/05 07:07:22;;;;;;;4.30;3.90;;;;;;;;;;5014830;28;20106;-48
2022/06/05 07:09:47;;;;;;;4.60;3.58;;;;;;;;;;5014724;28;20104;-47
2022/06/05 07:12:13;;;;;;;5.93;3.85;;;;;;;;;;4997516;28;20034;-49
2022/06/05 07:14:38;;;;;;;6.00;4.63;;;;;;;;;;5014872;28;20054;-47
2022/06/05 07:17:04;;;;;;;3.55;3.25;;;;;;;;;;5014877;28;20041;-47
2022/06/05 07:19:30;;;;;;;5.53;3.50;;;;;;;;;;5013920;28;20025;-47
2022/06/05 07:21:55;;;;;;;5.63;3.65;;;;;;;;;;5014500;28;20037;-48
2022/06/05 07:24:21;;;;;;;4.30;3.90;;;;;;;;;;5014821;28;20022;-46
2022/06/05 07:26:46;;;;;;;3.15;2.40;;;;;;;;;;5014532;28;20025;-48
2022/06/05 07:29:12;;;;;;;5.53;3.90;;;;;;;;;;5014398;28;20544;-49
2022/06/05 07:31:38;;;;;;;4.40;4.00;;;;;;;;;;5014450;28;20053;-45
2022/06/05 07:34:07;;;;;;;3.90;3.05;;;;;;;;;;5014234;28;20021;-46
2022/06/05 07:36:33;;;;;;;4.65;3.22;;;;;;;;;;5014302;28;20512;-46
2022/06/05 07:39:02;;;;;;;7.35;3.85;;;;;;;;;;5014482;28;20053;-45
2022/06/05 07:41:33;;;;;;;5.80;4.45;;;;;;;;;;5014177;28;20026;-47
2022/06/05 07:44:00;;;;;;;4.93;3.90;;;;;;;;;;5014170;28;20054;-48
2022/06/05 07:46:26;;;;;;;4.65;3.60;;;;;;;;;;5014378;28;20049;-46
2022/06/05 07:48:52;;;;;;;5.20;3.28;;;;;;;;;;5014004;28;20474;-46
2022/06/05 07:56:50;;;;;;;6.10;4.65;;;;;;;;;;5014269;28;20029;-45
2022/06/05 07:59:16;;;;;;;7.22;5.80;;;;;;;;;;5013813;28;20022;-46
2022/06/05 08:01:41;;;;;;;6.20;5.60;;;;;;;;;;5014153;28;20038;-46
2022/06/05 08:04:07;;;;;;;8.15;6.20;;;;;;;;;;5014024;28;20030;-46
2022/06/05 08:06:34;;;;;;;4.07;3.28;;;;;;;;;;5013778;28;20072;-45
2022/06/05 08:09:00;;;;;;;8.52;6.38;;;;;;;;;;5013654;28;20057;-45
2022/06/05 08:11:26;;;;;;;6.30;5.35;;;;;;;;;;5013913;28;20053;-47
2022/06/05 08:13:51;;;;;;;5.00;4.10;;;;;;;;;;5013533;28;20059;-47
2022/06/05 08:16:17;;;;;;;11.20;6.63;;;;;;;;;;5013583;28;20033;-46
2022/06/05 08:18:43;;;;;;;8.23;5.47;;;;;;;;;;5013752;28;20041;-47
2022/06/05 08:21:09;;;;;;;6.57;4.32;;;;;;;;;;5013770;28;20096;-45
2022/06/05 08:23:35;;;;;;;8.25;5.53;;;;;;;;;;5013655;28;20076;-46
2022/06/05 08:26:01;;;;;;;8.32;5.93;;;;;;;;;;5013755;28;20058;-46
2022/06/05 08:28:27;;;;;;;7.15;6.00;;;;;;;;;;5013444;28;20022;-45
2022/06/05 08:30:53;;;;;;;5.07;4.57;;;;;;;;;;5012632;28;20160;-45
2022/06/05 08:33:20;;;;;;;5.55;4.45;;;;;;;;;;5013111;28;20045;-46
2022/06/05 08:35:48;;;;;;;4.60;4.05;;;;;;;;;;5013175;28;20068;-47
2022/06/05 08:41:27;;;;;;;7.03;4.47;;;;;;;;;;5013524;28;20520;-46
2022/06/05 08:44:11;;;;;;;3.85;3.13;;;;;;;;;;4984410;28;20061;-45
2022/06/05 08:46:54;;;;;;;8.80;4.80;;;;;;;;;;5013358;28;20421;-49
2022/06/05 08:49:45;;;;;;;6.78;5.47;;;;;;;;;;5013039;28;20033;-45
2022/06/05 08:52:33;;;;;;;9.45;6.32;;;;;;;;;;5013330;28;20033;-47
2022/06/05 08:55:10;;;;;;;4.75;3.88;;;;;;;;;;5013221;28;20382;-46
2022/06/05 08:58:03;;;;;;;6.70;4.90;;;;;;;;;;5012914;28;20553;-45
2022/06/05 09:01:01;;;;;;;6.70;4.78;;;;;;;;;;5012887;28;20030;-50
2022/06/05 09:03:56;;;;;;;6.18;4.47;;;;;;;;;;4995893;28;20046;-45
2022/06/05 09:06:32;;;;;;;4.85;4.35;;;;;;;;;;5009661;28;20041;-45
2022/06/05 09:09:00;;;;;;;3.65;3.17;;;;;;;;;;5012717;28;20045;-46
2022/06/05 09:11:48;;;;;;;5.60;4.22;;;;;;;;;;5012837;28;20036;-46
2022/06/05 09:14:33;;;;;;;3.65;3.35;;;;;;;;;;5012568;28;20104;-46
2022/06/05 09:17:05;;;;;;;4.55;3.35;;;;;;;;;;5012484;28;20478;-48
2022/06/05 09:19:31;;;;;;;4.65;3.78;;;;;;;;;;5012842;28;20117;-45
2022/06/05 09:22:24;;;;;;;6.65;4.03;;;;;;;;;;5012448;28;20018;-45
2022/06/05 09:24:58;;;;;;;3.05;2.75;;;;;;;;;;5012458;28;20133;-45
2022/06/05 09:27:38;;;;;;;5.00;3.05;;;;;;;;;;5012379;28;20481;-46
2022/06/05 09:30:21;;;;;;;5.32;3.75;;;;;;;;;;5012393;28;20533;-45
2022/06/05 09:33:05;;;;;;;4.22;3.60;;;;;;;;;;5012274;28;20060;-48
2022/06/05 09:35:40;;;;;;;4.55;3.30;;;;;;;;;;5012503;28;20567;-48
2022/06/05 09:38:40;;;;;;;5.35;2.70;;;;;;;;;;5012421;28;20056;-45
2022/06/05 09:41:12;;;;;;;3.90;3.33;;;;;;;;;;4999603;28;20084;-45
2022/06/05 09:43:55;;;;;;;5.50;3.42;;;;;;;;;;5016619;28;20064;-46
2022/06/05 09:46:54;;;;;;;3.25;2.78;;;;;;;;;;5016654;28;20358;-47
2022/06/05 09:49:40;;;;;;;;;;;;;;;;;;5016934;28;20030;-46
2022/06/05 09:52:19;;;;;;;3.42;2.55;;;;;;;;;;5015996;28;20361;-45
2022/06/05 09:55:00;;;;;;;2.58;2.38;;;;;;;;;;5016276;28;20060;-45
2022/06/05 10:00:49;;;;;;;2.92;2.70;;;;;;;;;;5016078;28;20521;-48
2022/06/05 10:03:41;;;;;;;4.85;3.05;;;;;;;;;;5015842;28;20066;-48
2022/06/05 10:06:24;;;;;;;2.28;2.08;;;;;;;;;;5016121;28;20037;-48
2022/06/05 10:09:17;;;;;;;2.65;2.17;;;;;;;;;;5015623;28;20034;-46
2022/06/05 10:11:55;;;;;;;4.45;2.47;;;;;;;;;;5012738;28;20502;-47
2022/06/05 10:14:32;;;;;;;1.90;1.80;;;;;;;;;;5015735;28;20052;-46
2022/06/05 10:17:10;;;;;;;2.75;2.30;;;;;;;;;;5015992;28;20414;-47
2022/06/05 10:19:54;;;;;;;2.85;2.47;;;;;;;;;;5015648;28;20050;-46
2022/06/05 10:22:23;;;;;;;3.22;2.78;;;;;;;;;;4998024;28;20078;-49
2022/06/05 10:24:54;;;;;;;4.80;2.75;;;;;;;;;;5015796;28;20021;-46
2022/06/05 10:27:20;;;;;;;2.40;1.95;;;;;;;;;;5015567;28;20540;-47
2022/06/05 10:29:48;;;;;;;3.67;2.92;;;;;;;;;;5015783;28;20034;-47
2022/06/05 10:32:21;;;;;;;3.13;2.40;;;;;;;;;;5015233;28;20053;-46
2022/06/05 10:35:04;;;;;;;6.28;2.75;;;;;;;;;;5015411;28;20060;-46
2022/06/05 10:37:56;;;;;;;2.30;2.00;;;;;;;;;;5015475;28;20060;-48
2022/06/05 10:40:33;;;;;;;2.92;1.92;;;;;;;;;;5015581;28;20049;-48
2022/06/05 10:43:10;;;;;;;5.65;1.98;;;;;;;;;;5015569;28;20029;-47
2022/06/05 10:45:51;;;;;;;2.35;2.13;;;;;;;;;;5018025;28;20022;-48
2022/06/05 10:48:36;;;;;;;1.90;1.70;;;;;;;;;;5020549;28;20046;-46
2022/06/05 10:51:04;;;;;;;4.32;2.60;;;;;;;;;;5015110;28;20508;-46
2022/06/05 10:53:52;;;;;;;4.57;2.60;;;;;;;;;;5012800;28;20033;-45
2022/06/05 10:56:20;;;;;;;2.00;1.88;;;;;;;;;;5018606;28;20033;-45
2022/06/05 10:58:51;;;;;;;2.20;2.00;;;;;;;;;;5013048;28;20030;-49
2022/06/05 11:01:43;;;;;;;3.20;2.70;;;;;;;;;;5013754;28;20076;-46
2022/06/05 11:04:30;;;;;;;3.83;2.47;;;;;;;;;;5014202;28;20030;-46
2022/06/05 11:07:18;;;;;;;2.08;1.75;;;;;;;;;;5014848;28;20242;-50
2022/06/05 11:09:54;;;;;;;3.22;2.92;;;;;;;;;;5019955;28;20030;-46
2022/06/05 11:15:25;;;;;;;5.03;2.70;;;;;;;;;;5020485;28;20095;-47
2022/06/05 11:17:55;;;;;;;2.97;2.75;;;;;;;;;;5014715;28;20026;-47
2022/06/05 11:20:24;;;;;;;3.17;2.50;;;;;;;;;;5025721;28;20100;-45
2022/06/05 11:23:07;;;;;;;3.60;3.22;;;;;;;;;;5015887;28;20048;-46
2022/06/05 11:25:53;;;;;;;2.05;1.95;;;;;;;;;;5028410;28;20029;-46
2022/06/05 11:28:48;;;;;;;2.40;2.20;;;;;;;;;;5034505;28;20040;-46
2022/06/05 11:31:23;;;;;;;3.40;2.50;;;;;;;;;;5034159;28;20474;-48
2022/06/05 11:34:03;;;;;;;3.15;2.70;;;;;;;;;;5032037;28;20084;-47
2022/06/05 11:36:49;;;;;;;1.50;1.38;;;;;;;;;;5022147;28;20029;-46
2022/06/05 11:39:20;;;;;;;3.50;3.20;;;;;;;;;;5023573;28;20079;-47
2022/06/05 11:42:03;;;;;;;3.10;2.80;;;;;;;;;;5021101;28;20022;-46
2022/06/05 11:44:41;;;;;;;5.40;2.47;;;;;;;;;;5021577;28;20056;-46
2022/06/05 11:47:24;;;;;;;2.08;1.95;;;;;;;;;;5021439;28;20030;-46
2022/06/05 11:50:01;;;;;;;2.05;1.88;;;;;;;;;;5022228;28;20022;-46
2022/06/05 11:52:33;;;;;;;5.03;2.67;;;;;;;;;;4997153;28;20091;-49
2022/06/05 11:55:28;;;;;;;3.13;2.00;;;;;;;;;;5013773;28;20057;-47
2022/06/05 11:58:17;;;;;;;4.18;2.90;;;;;;;;;;5016405;28;20505;-47
2022/06/05 12:00:55;;;;;;;4.97;3.08;;;;;;;;;;5013752;28;20045;-46
2022/06/05 12:03:30;;;;;;;1.92;1.80;;;;;;;;;;5020114;28;20469;-47
2022/06/05 12:06:11;;;;;;;2.60;2.20;;;;;;;;;;5033285;28;20366;-46
2022/06/05 12:08:41;;;;;;;3.03;2.75;;;;;;;;;;5033593;28;20029;-46
2022/06/05 12:11:23;;;;;;;3.15;2.60;;;;;;;;;;5028542;28;20026;-45
2022/06/05 12:14:22;;;;;;;4.13;2.45;;;;;;;;;;5022566;28;20528;-47
2022/06/05 12:17:14;;;;;;;4.60;2.47;;;;;;;;;;5030820;28;20036;-45
2022/06/05 12:20:00;;;;;;;2.17;2.00;;;;;;;;;;5033249;28;20274;-47
2022/06/05 12:22:39;;;;;;;2.45;2.22;;;;;;;;;;5033199;28;20025;-46
2022/06/05 12:25:19;;;;;;;4.70;3.27;;;;;;;;;;5033208;28;20029;-46
2022/06/05 12:27:54;;;;;;;;;;;;;;;;;;5033487;28;20033;-46
2022/06/05 12:30:23;;;;;;;4.30;2.28;;;;;;;;;;5032956;28;19913;-47
2022/06/05 12:32:58;;;;;;;;;;;;;;;;;;5032780;28;20418;-48
2022/06/05 12:35:29;;;;;;;6.53;2.75;;;;;;;;;;5031989;28;20015;-47
2022/06/05 12:38:01;;;;;;;2.95;2.75;;;;;;;;;;5014518;28;20036;-46
2022/06/05 12:40:37;;;;;;;2.78;2.58;;;;;;;;;;5032737;28;20108;-48
2022/06/05 12:43:28;;;;;;;5.03;3.33;;;;;;;;;;5033084;28;20033;-46
2022/06/05 12:46:00;;;;;;;2.80;2.53;;;;;;;;;;5023774;28;20525;-46
2022/06/05 12:48:30;;;;;;;4.07;2.80;;;;;;;;;;4993854;28;20049;-47
2022/06/05 12:51:05;;;;;;;3.97;2.80;;;;;;;;;;5002126;28;20017;-46
2022/06/05 12:53:40;;;;;;;7.38;3.65;;;;;;;;;;5023299;28;20053;-47
2022/06/05 12:56:32;;;;;;;4.63;3.50;;;;;;;;;;5020636;28;20036;-47
2022/06/05 12:59:23;;;;;;;2.65;2.45;;;;;;;;;;4999322;28;20026;-46
2022/06/05 13:02:05;;;;;;;2.50;2.30;;;;;;;;;;5016882;28;20109;-45
2022/06/05 13:04:44;;;;;;;3.22;2.88;;;;;;;;;;5013073;28;20056;-46
2022/06/05 13:07:27;;;;;;;3.17;2.17;;;;;;;;;;5012967;28;20033;-46
2022/06/05 13:10:21;;;;;;;5.63;3.22;;;;;;;;;;4993120;28;20486;-47
2022/06/05 13:13:10;;;;;;;4.85;3.50;;;;;;;;;;4940439;28;20171;-46
2022/06/05 13:15:59;;;;;;;3.90;3.28;;;;;;;;;;5011972;28;20038;-46
2022/06/05 13:18:45;;;;;;;3.17;2.88;;;;;;;;;;5022826;28;20041;-45
2022/06/05 13:21:13;;;;;;;3.75;3.45;;;;;;;;;;5013081;28;20045;-46
2022/06/05 13:24:19;;;;;;;5.68;2.50;;;;;;;;;;5030793;28;20025;-44
2022/06/05 13:27:09;;;;;;;2.95;2.28;;;;;;;;;;4917045;29;20040;-48
2022/06/05 13:29:38;;;;;;;7.30;2.85;;;;;;;;;;5021531;28;20459;-46
2022/06/05 13:32:12;;;;;;;2.97;2.65;;;;;;;;;;5024257;28;20045;-47
2022/06/05 13:34:48;;;;;;;2.03;1.92;;;;;;;;;;5030699;28;20121;-47
2022/06/05 13:37:29;;;;;;;2.60;2.40;;;;;;;;;;5030606;28;20029;-46
2022/06/05 13:40:21;;;;;;;2.78;1.98;;;;;;;;;;5010392;28;20030;-46
2022/06/05 13:42:51;;;;;;;3.85;3.45;;;;;;;;;;5010455;28;20030;-48
2022/06/05 13:45:39;;;;;;;1.80;1.70;;;;;;;;;;5010544;28;20021;-44
2022/06/05 13:48:16;;;;;;;2.80;2.60;;;;;;;;;;5010503;28;20492;-46
2022/06/05 13:51:23;;;;;;;3.40;3.10;;;;;;;;;;5010615;28;20109;-46
2022/06/05 13:53:58;;;;;;;2.40;2.20;;;;;;;;;;4930685;29;20439;-50
2022/06/05 13:56:36;;;;;;;3.08;2.80;;;;;;;;;;4930580;29;20091;-47
2022/06/05 13:59:11;;;;;;;2.53;2.10;;;;;;;;;;4930692;29;20096;-45
2022/06/05 14:01:59;;;;;;;2.88;2.40;;;;;;;;;;4961060;28;20095;-45
2022/06/05 14:04:27;;;;;;;2.78;2.38;;;;;;;;;;5000020;28;20037;-45
2022/06/05 14:07:19;;;;;;;4.47;2.58;;;;;;;;;;5010165;28;20635;-49
2022/06/05 14:09:51;;;;;;;3.72;3.42;;;;;;;;;;5010666;28;20029;-49
2022/06/05 14:12:25;;;;;;;3.88;3.47;;;;;;;;;;5010469;28;20077;-45
2022/06/05 14:14:52;;;;;;;2.40;2.20;;;;;;;;;;5010000;28;20025;-46
2022/06/05 14:17:34;;;;;;;2.30;2.10;;;;;;;;;;5010513;28;20457;-47
2022/06/05 14:20:13;;;;;;;2.38;2.17;;;;;;;;;;5010354;28;20026;-47
2022/06/05 14:22:53;;;;;;;3.43;2.43;;;;;;;;;;5010241;28;20105;-47
2022/06/05 14:25:37;;;;;;;1.75;1.58;;;;;;;;;;5010482;28;20104;-46
2022/06/05 14:28:06;;;;;;;2.30;2.10;;;;;;;;;;5012392;28;20072;-48
2022/06/05 14:30:37;;;;;;;4.25;2.75;;;;;;;;;;5014111;28;20022;-44
2022/06/05 14:33:07;;;;;;;2.80;2.60;;;;;;;;;;4993269;28;20046;-42
2022/06/05 14:35:52;;;;;;;;;;;;;;;;;;4994789;28;20065;-43
2022/06/05 14:38:29;;;;;;;4.60;2.92;;;;;;;;;;4994817;28;20270;-41
2022/06/05 14:41:07;;;;;;;3.13;2.75;;;;;;;;;;4994592;28;20631;-40
2022/06/05 14:43:33;;;;;;;3.42;3.13;;;;;;;;;;4994267;28;20030;-42
2022/06/05 14:46:11;;;;;;;4.57;2.85;;;;;;;;;;4994321;28;20114;-40
2022/06/05 14:48:40;;;;;;;3.45;3.13;;;;;;;;;;4994383;28;20026;-40
2022/06/05 14:51:16;;;;;;;3.80;2.92;;;;;;;;;;4994274;28;20034;-39
2022/06/05 14:54:11;;;;;;;3.55;2.67;;;;;;;;;;4994167;28;20076;-42
2022/06/05 14:59:56;;;;;;;2.78;2.58;;;;;;;;;;4994076;28;20174;-41
2022/06/05 15:02:31;;;;;;;2.42;1.90;;;;;;;;;;4994091;28;20102;-42
2022/06/05 15:05:09;;;;;;;2.78;1.48;;;;;;;;;;4995509;28;20037;-44
2022/06/05 15:07:43;;;;;;;3.20;2.50;;;;;;;;;;5000752;28;20033;-42
2022/06/05 15:10:30;;;;;;;3.17;2.78;;;;;;;;;;5003493;28;20105;-43
2022/06/05 15:13:11;;;;;;;3.65;2.72;;;;;;;;;;5002373;28;20105;-41
2022/06/05 15:15:41;;;;;;;3.80;2.45;;;;;;;;;;5012155;28;20512;-47
2022/06/05 15:18:07;;;;;;;3.95;2.65;;;;;;;;;;5014850;28;20056;-46
2022/06/05 15:21:00;;;;;;;2.67;2.42;;;;;;;;;;5013565;28;20489;-48
2022/06/05 15:23:35;;;;;;;6.18;2.72;;;;;;;;;;5014592;28;20117;-45
2022/06/05 15:26:16;;;;;;;3.13;2.80;;;;;;;;;;5014019;28;20057;-46
2022/06/05 15:29:03;;;;;;;2.10;2.00;;;;;;;;;;5014237;28;20366;-47
2022/06/05 15:31:43;;;;;;;2.65;2.15;;;;;;;;;;5014625;28;20034;-46
2022/06/05 15:34:23;;;;;;;2.55;2.35;;;;;;;;;;5014643;28;20057;-46
2022/06/05 15:37:04;;;;;;;2.50;2.30;;;;;;;;;;5014369;28;20069;-46
2022/06/05 15:39:49;;;;;;;2.60;2.40;;;;;;;;;;5013748;28;20481;-47
2022/06/05 15:42:33;;;;;;;2.45;1.92;;;;;;;;;;5014535;28;20034;-46
2022/06/05 15:45:25;;;;;;;2.63;2.38;;;;;;;;;;5014287;28;20028;-46
2022/06/05 15:48:37;;;;;;;2.40;2.20;;;;;;;;;;4996433;28;20029;-45